createdAt,value
2023-05-16T00:00:45.447Z,100978.28
2023-05-16T00:03:34.476Z,100975.19
2023-05-16T00:06:21.117Z,100973.50
2023-05-16T00:09:07.692Z,100980.34
2023-05-16T00:11:54.116Z,100978.50
2023-05-16T00:14:40.596Z,100978.03
2023-05-16T00:17:28.931Z,100990.28
2023-05-16T00:20:17.180Z,100984.91
2023-05-16T00:23:03.985Z,100992.59
2023-05-16T00:25:49.992Z,100990.28
2023-05-16T00:28:36.354Z,100993.41
2023-05-16T00:31:23.458Z,100993.41
2023-05-16T00:34:11.055Z,100996.31
2023-05-16T00:36:58.197Z,100997.38
2023-05-16T00:39:44.386Z,100997.06
2023-05-16T00:42:30.902Z,101000.66
2023-05-16T00:45:17.278Z,100991.53
2023-05-16T00:48:03.816Z,101005.84
2023-05-16T00:50:50.389Z,100993.81
2023-05-16T00:53:38.217Z,100993.41
2023-05-16T00:56:24.673Z,101001.09
2023-05-16T00:59:10.977Z,100996.31
2023-05-16T01:01:58.639Z,100999.47
2023-05-16T01:04:45.353Z,101000.91
2023-05-16T01:07:31.342Z,101005.50
2023-05-16T01:10:18.919Z,100995.97
2023-05-16T01:13:10.382Z,101003.00
2023-05-16T01:16:01.335Z,101005.47
2023-05-16T01:18:48.849Z,101004.22
2023-05-16T01:21:43.523Z,101003.38
2023-05-16T01:24:35.557Z,101011.25
2023-05-16T01:27:24.064Z,101007.13
2023-05-16T01:30:18.006Z,101013.97
2023-05-16T01:33:04.875Z,100997.59
2023-05-16T01:35:56.822Z,100994.06
2023-05-16T01:38:46.073Z,100998.81
2023-05-16T01:41:37.694Z,100993.81
2023-05-16T01:44:30.360Z,100983.88
2023-05-16T01:47:18.010Z,100981.38
2023-05-16T01:50:07.296Z,100987.41
2023-05-16T01:52:57.490Z,100982.63
2023-05-16T01:55:46.564Z,100996.31
2023-05-16T01:58:34.386Z,100994.28
2023-05-16T02:01:21.825Z,101002.53
2023-05-16T02:04:08.676Z,101001.50
2023-05-16T02:06:55.580Z,101009.50
2023-05-16T02:09:41.553Z,101010.63
2023-05-16T02:12:27.986Z,101022.34
2023-05-16T02:15:14.627Z,101016.00
2023-05-16T02:18:02.069Z,101017.38
2023-05-16T02:20:48.522Z,101022.44
2023-05-16T02:23:35.730Z,101023.19
2023-05-16T02:26:21.863Z,101031.06
2023-05-16T02:29:07.912Z,101026.00
2023-05-16T02:31:53.676Z,101027.91
2023-05-16T02:34:40.968Z,101029.34
2023-05-16T02:37:27.480Z,101028.09
2023-05-16T02:40:14.607Z,101026.28
2023-05-16T02:43:00.516Z,101025.59
2023-05-16T02:45:46.956Z,101029.13
2023-05-16T02:48:33.086Z,101035.13
2023-05-16T02:51:21.412Z,101035.56
2023-05-16T02:54:09.893Z,101041.63
2023-05-16T02:56:56.305Z,101045.94
2023-05-16T02:59:42.237Z,101046.38
2023-05-16T03:02:28.327Z,101044.31
2023-05-16T03:05:14.199Z,101042.75
2023-05-16T03:08:01.684Z,101057.13
2023-05-16T03:10:47.762Z,101051.31
2023-05-16T03:13:33.898Z,101065.25
2023-05-16T03:16:20.108Z,101055.84
2023-05-16T03:19:06.679Z,101057.88
2023-05-16T03:21:52.952Z,101062.00
2023-05-16T03:24:40.478Z,101069.09
2023-05-16T03:27:27.815Z,101073.16
2023-05-16T03:30:14.458Z,101081.78
2023-05-16T03:33:00.502Z,101074.22
2023-05-16T03:35:46.983Z,101079.41
2023-05-16T03:38:33.394Z,101078.00
2023-05-16T03:41:21.004Z,101091.31
2023-05-16T03:44:06.943Z,101087.03
2023-05-16T03:46:53.006Z,101078.56
2023-05-16T03:49:39.171Z,101078.09
2023-05-16T03:52:25.251Z,101078.88
2023-05-16T03:55:14.215Z,101080.31
2023-05-16T03:58:01.767Z,101088.28
2023-05-16T04:00:47.670Z,101081.22
2023-05-16T04:03:33.749Z,101086.75
2023-05-16T04:06:20.254Z,101090.50
2023-05-16T04:09:07.121Z,101089.19
2023-05-16T04:11:52.988Z,101090.75
2023-05-16T04:14:40.283Z,101093.56
2023-05-16T04:17:27.206Z,101094.56
2023-05-16T04:20:13.404Z,101095.13
2023-05-16T04:22:59.328Z,101090.75
2023-05-16T04:25:45.268Z,101097.97
2023-05-16T04:28:31.232Z,101109.78
2023-05-16T04:31:18.474Z,101103.97
2023-05-16T04:34:04.758Z,101107.53
2023-05-16T04:36:51.237Z,101112.72
2023-05-16T04:39:37.792Z,101117.25
2023-05-16T04:42:24.166Z,101121.41
2023-05-16T04:45:11.942Z,101124.03
2023-05-16T04:47:59.589Z,101129.28
2023-05-16T04:50:45.817Z,101142.13
2023-05-16T04:53:32.049Z,101143.78
2023-05-16T04:56:18.064Z,101151.81
2023-05-16T04:59:04.088Z,101157.00
2023-05-16T05:01:50.409Z,101168.28
2023-05-16T05:04:38.082Z,101156.81
2023-05-16T05:07:23.990Z,101172.78
2023-05-16T05:10:11.701Z,101180.13
2023-05-16T05:12:58.534Z,101178.31
2023-05-16T05:15:44.488Z,101188.53
2023-05-16T05:18:30.499Z,101189.91
2023-05-16T05:21:18.375Z,101191.41
2023-05-16T05:24:04.335Z,101200.09
2023-05-16T05:26:50.273Z,101199.81
2023-05-16T05:29:36.515Z,101205.72
2023-05-16T05:32:22.573Z,101199.63
2023-05-16T05:35:08.725Z,101200.59
2023-05-16T05:37:56.177Z,101208.97
2023-05-16T05:40:42.343Z,101222.16
2023-05-16T05:43:28.510Z,101219.56
2023-05-16T05:46:15.346Z,101228.13
2023-05-16T05:49:02.000Z,101239.00
2023-05-16T05:51:48.015Z,101238.66
2023-05-16T05:54:35.425Z,101241.38
2023-05-16T05:57:21.579Z,101245.56
2023-05-16T06:00:09.885Z,101246.44
2023-05-16T06:02:56.583Z,101252.03
2023-05-16T06:05:43.413Z,101243.47
2023-05-16T06:08:29.570Z,101249.00
2023-05-16T06:11:16.863Z,101252.47
2023-05-16T06:14:02.709Z,101264.66
2023-05-16T06:16:48.650Z,101265.06
2023-05-16T06:19:35.418Z,101267.56
2023-05-16T06:22:21.601Z,101266.81
2023-05-16T06:25:08.345Z,101278.31
2023-05-16T06:27:56.031Z,101285.19
2023-05-16T06:30:42.441Z,101279.34
2023-05-16T06:33:28.822Z,101287.50
2023-05-16T06:36:15.118Z,101284.44
2023-05-16T06:39:01.105Z,101291.13
2023-05-16T06:41:47.119Z,101287.59
2023-05-16T06:44:36.811Z,101296.56
2023-05-16T06:47:22.777Z,101292.22
2023-05-16T06:50:10.175Z,101297.41
2023-05-16T06:52:56.335Z,101298.84
2023-05-16T06:55:42.132Z,101297.00
2023-05-16T06:58:27.964Z,101291.44
2023-05-16T07:01:15.375Z,101297.25
2023-05-16T07:04:01.480Z,101295.59
2023-05-16T07:06:47.809Z,101300.16
2023-05-16T07:09:34.021Z,101299.53
2023-05-16T07:12:20.839Z,101303.69
2023-05-16T07:15:08.079Z,101320.16
2023-05-16T07:17:55.579Z,101317.16
2023-05-16T07:20:41.991Z,101309.88
2023-05-16T07:23:27.998Z,101316.34
2023-05-16T07:26:14.263Z,101310.88
2023-05-16T07:29:00.019Z,101314.13
2023-05-16T07:31:46.194Z,101312.91
2023-05-16T07:34:36.255Z,101317.22
2023-05-16T07:37:22.941Z,101311.59
2023-05-16T07:40:10.056Z,101316.63
2023-05-16T07:42:56.336Z,101316.09
2023-05-16T07:45:42.390Z,101319.84
2023-05-16T07:48:28.998Z,101313.63
2023-05-16T07:51:16.513Z,101309.84
2023-05-16T07:54:02.515Z,101324.22
2023-05-16T07:56:48.430Z,101318.53
2023-05-16T07:59:34.636Z,101319.69
2023-05-16T08:02:20.808Z,101319.09
2023-05-16T08:05:08.769Z,101318.28
2023-05-16T08:07:56.555Z,101333.81
2023-05-16T08:10:42.528Z,101321.00
2023-05-16T08:13:28.774Z,101328.47
2023-05-16T08:16:15.566Z,101337.00
2023-05-16T08:19:01.730Z,101334.72
2023-05-16T08:21:48.333Z,101336.56
2023-05-16T08:24:35.747Z,101332.34
2023-05-16T08:27:21.819Z,101335.03
2023-05-16T08:30:09.054Z,101329.63
2023-05-16T08:32:55.174Z,101333.22
2023-05-16T08:35:43.525Z,101332.66
2023-05-16T08:38:29.640Z,101327.84
2023-05-16T08:41:17.078Z,101317.91
2023-05-16T08:44:03.368Z,101322.00
2023-05-16T08:46:52.668Z,101320.31
2023-05-16T08:49:40.349Z,101325.84
2023-05-16T08:52:29.920Z,101327.31
2023-05-16T08:55:16.552Z,101322.94
2023-05-16T08:58:04.356Z,101320.03
2023-05-16T09:00:50.617Z,101323.31
2023-05-16T09:03:37.911Z,101321.50
2023-05-16T09:06:24.731Z,101318.69
2023-05-16T09:09:12.923Z,101321.09
2023-05-16T09:11:59.469Z,101313.25
2023-05-16T09:14:47.401Z,101315.41
2023-05-16T09:17:39.841Z,101314.50
2023-05-16T09:20:27.527Z,101323.28
2023-05-16T09:23:13.852Z,101310.53
2023-05-16T09:26:00.034Z,101308.25
2023-05-16T09:28:46.200Z,101317.31
2023-05-16T09:31:37.940Z,101313.97
2023-05-16T09:34:24.511Z,101313.34
2023-05-16T09:37:11.026Z,101313.03
2023-05-16T09:39:57.065Z,101317.00
2023-05-16T09:42:43.338Z,101311.50
2023-05-16T09:45:29.585Z,101309.81
2023-05-16T09:48:18.439Z,101310.88
2023-05-16T09:51:07.024Z,101308.13
2023-05-16T09:53:53.237Z,101310.00
2023-05-16T09:56:50.066Z,101311.88
2023-05-16T09:59:40.197Z,101303.69
2023-05-16T10:02:26.720Z,101308.09
2023-05-16T10:05:14.863Z,101308.84
2023-05-16T10:08:01.209Z,101314.69
2023-05-16T10:10:47.534Z,101310.44
2023-05-16T10:13:35.356Z,101316.19
2023-05-16T10:16:23.431Z,101305.25
2023-05-16T10:19:10.035Z,101311.00
2023-05-16T10:22:00.413Z,101308.06
2023-05-16T10:24:49.848Z,101299.19
2023-05-16T10:27:36.775Z,101290.06
2023-05-16T10:30:23.212Z,101293.97
2023-05-16T10:33:09.810Z,101292.03
2023-05-16T10:35:56.787Z,101297.59
2023-05-16T10:38:44.685Z,101296.53
2023-05-16T10:41:31.027Z,101281.56
2023-05-16T10:44:18.206Z,101279.13
2023-05-16T10:47:05.364Z,101279.66
2023-05-16T10:49:51.659Z,101288.38
2023-05-16T10:52:37.690Z,101290.06
2023-05-16T10:55:25.022Z,101284.03
2023-05-16T10:58:11.141Z,101293.28
2023-05-16T11:01:16.232Z,101287.31
2023-05-16T11:04:08.320Z,101294.53
2023-05-16T11:06:56.516Z,101302.94
2023-05-16T11:09:45.397Z,101309.22
2023-05-16T11:12:43.951Z,101306.97
2023-05-16T11:15:34.528Z,101310.00
2023-05-16T11:18:20.961Z,101317.47
2023-05-16T11:21:07.648Z,101313.13
2023-05-16T11:24:26.761Z,101313.47
2023-05-16T11:27:15.158Z,101320.69
2023-05-16T11:30:12.786Z,101310.41
2023-05-16T11:32:59.044Z,101314.38
2023-05-16T11:36:13.915Z,101320.31
2023-05-16T11:39:07.343Z,101312.47
2023-05-16T11:41:54.446Z,101301.00
2023-05-16T11:44:41.005Z,101295.00
2023-05-16T11:47:29.830Z,101308.28
2023-05-16T11:50:17.984Z,101301.44
2023-05-16T11:53:03.987Z,101300.81
2023-05-16T11:55:55.553Z,101303.06
2023-05-16T11:58:42.521Z,101302.00
2023-05-16T12:01:33.481Z,101302.72
2023-05-16T12:04:22.286Z,101320.16
2023-05-16T12:07:08.613Z,101317.03
2023-05-16T12:09:54.939Z,101310.97
2023-05-16T12:12:42.859Z,101304.66
2023-05-16T12:15:29.220Z,101303.31
2023-05-16T12:18:15.872Z,101307.97
2023-05-16T12:21:03.296Z,101296.38
2023-05-16T12:23:49.397Z,101302.13
2023-05-16T12:26:35.826Z,101299.47
2023-05-16T12:29:24.970Z,101303.31
2023-05-16T12:32:11.108Z,101318.03
2023-05-16T12:34:57.144Z,101327.16
2023-05-16T12:37:46.092Z,101327.41
2023-05-16T12:40:32.521Z,101330.00
2023-05-16T12:43:21.003Z,101332.88
2023-05-16T12:46:11.447Z,101325.75
2023-05-16T12:49:04.979Z,101328.00
2023-05-16T12:51:52.588Z,101324.53
2023-05-16T12:54:39.995Z,101321.34
2023-05-16T12:57:26.362Z,101324.63
2023-05-16T13:00:14.194Z,101330.38
2023-05-16T13:03:00.385Z,101333.97
2023-05-16T13:05:47.019Z,101343.00
2023-05-16T13:08:32.855Z,101346.81
2023-05-16T13:11:20.804Z,101346.59
2023-05-16T13:14:06.788Z,101335.53
2023-05-16T13:16:52.984Z,101335.00
2023-05-16T13:19:39.294Z,101346.81
2023-05-16T13:22:25.582Z,101344.88
2023-05-16T13:25:12.414Z,101341.22
2023-05-16T13:27:59.958Z,101347.66
2023-05-16T13:30:45.923Z,101354.94
2023-05-16T13:33:32.046Z,101356.59
2023-05-16T13:36:20.048Z,101353.22
2023-05-16T13:39:06.192Z,101358.41
2023-05-16T13:41:52.423Z,101358.41
2023-05-16T13:44:40.172Z,101356.25
2023-05-16T13:47:26.197Z,101362.13
2023-05-16T13:50:12.365Z,101361.84
2023-05-16T13:52:59.199Z,101359.47
2023-05-16T13:55:45.350Z,101362.63
2023-05-16T13:58:31.556Z,101368.84
2023-05-16T14:01:18.955Z,101386.94
2023-05-16T14:04:05.461Z,101398.34
2023-05-16T14:06:51.746Z,101403.56
2023-05-16T14:09:39.373Z,101412.41
2023-05-16T14:12:25.759Z,101415.28
2023-05-16T14:15:12.090Z,101407.72
2023-05-16T14:18:00.110Z,101409.00
2023-05-16T14:20:46.187Z,101413.16
2023-05-16T14:23:31.913Z,101413.16
2023-05-16T14:26:22.340Z,101417.47
2023-05-16T14:29:08.301Z,101427.53
2023-05-16T14:31:54.238Z,101419.38
2023-05-16T14:34:42.051Z,101423.00
2023-05-16T14:37:28.333Z,101420.72
2023-05-16T14:40:14.312Z,101419.16
2023-05-16T14:43:00.295Z,101410.69
2023-05-16T14:45:46.520Z,101410.69
2023-05-16T14:48:33.419Z,101413.31
2023-05-16T14:51:21.215Z,101422.53
2023-05-16T14:54:07.439Z,101420.41
2023-05-16T14:56:53.546Z,101423.44
2023-05-16T14:59:39.749Z,101419.28
2023-05-16T15:02:26.721Z,101423.59
2023-05-16T15:05:13.057Z,101419.16
2023-05-16T15:08:00.851Z,101430.06
2023-05-16T15:10:46.906Z,101424.88
2023-05-16T15:13:32.738Z,101422.66
2023-05-16T15:16:18.651Z,101418.47
2023-05-16T15:19:05.246Z,101420.72
2023-05-16T15:21:51.422Z,101418.47
2023-05-16T15:24:38.698Z,101420.13
2023-05-16T15:27:24.732Z,101427.84
2023-05-16T15:30:10.970Z,101431.41
2023-05-16T15:32:56.907Z,101432.88
2023-05-16T15:35:43.268Z,101437.28
2023-05-16T15:38:29.138Z,101445.31
2023-05-16T15:41:31.981Z,101449.59
2023-05-16T15:44:22.782Z,101454.78
2023-05-16T15:47:09.535Z,101459.47
2023-05-16T15:49:55.670Z,101462.56
2023-05-16T15:52:41.628Z,101467.16
2023-05-16T15:55:28.013Z,101460.09
2023-05-16T15:58:15.702Z,101456.16
2023-05-16T16:01:01.792Z,101462.59
2023-05-16T16:03:48.306Z,101455.16
2023-05-16T16:06:34.517Z,101447.28
2023-05-16T16:09:20.442Z,101448.25
2023-05-16T16:12:07.085Z,101438.47
2023-05-16T16:14:54.568Z,101441.00
2023-05-16T16:17:40.461Z,101444.59
2023-05-16T16:20:26.800Z,101439.00
2023-05-16T16:23:13.019Z,101442.75
2023-05-16T16:25:59.412Z,101445.50
2023-05-16T16:28:45.245Z,101441.53
2023-05-16T16:31:32.696Z,101445.94
2023-05-16T16:34:20.348Z,101439.25
2023-05-16T16:37:09.942Z,101436.59
2023-05-16T16:39:56.401Z,101442.41
2023-05-16T16:42:43.018Z,101440.72
2023-05-16T16:45:29.166Z,101442.63
2023-05-16T16:48:17.024Z,101444.94
2023-05-16T16:51:03.369Z,101447.00
2023-05-16T16:53:49.439Z,101452.03
2023-05-16T16:56:36.086Z,101452.88
2023-05-16T16:59:22.502Z,101451.19
2023-05-16T17:02:08.435Z,101454.72
2023-05-16T17:04:56.433Z,101457.25
2023-05-16T17:07:44.077Z,101461.00
2023-05-16T17:10:30.242Z,101465.16
2023-05-16T17:13:17.557Z,101464.13
2023-05-16T17:16:04.327Z,101470.38
2023-05-16T17:18:50.420Z,101463.31
2023-05-16T17:21:40.347Z,101468.94
2023-05-16T17:24:26.536Z,101472.47
2023-05-16T17:27:12.621Z,101475.16
2023-05-16T17:29:58.653Z,101471.22
2023-05-16T17:32:44.645Z,101480.16
2023-05-16T17:35:31.189Z,101478.28
2023-05-16T17:38:19.727Z,101485.97
2023-05-16T17:41:05.743Z,101488.28
2023-05-16T17:43:51.866Z,101484.13
2023-05-16T17:46:38.228Z,101489.75
2023-05-16T17:49:24.357Z,101493.03
2023-05-16T17:52:10.747Z,101500.75
2023-05-16T17:54:58.748Z,101503.66
2023-05-16T17:57:44.851Z,101503.84
2023-05-16T18:00:31.486Z,101497.59
2023-05-16T18:03:17.656Z,101499.47
2023-05-16T18:06:03.839Z,101501.72
2023-05-16T18:08:50.144Z,101506.91
2023-05-16T18:11:38.540Z,101508.53
2023-05-16T18:14:25.048Z,101506.91
2023-05-16T18:17:10.884Z,101516.69
2023-05-16T18:19:57.455Z,101526.88
2023-05-16T18:22:43.867Z,101523.50
2023-05-16T18:25:30.981Z,101529.31
2023-05-16T18:28:18.697Z,101530.97
2023-05-16T18:31:05.395Z,101532.13
2023-05-16T18:33:51.695Z,101536.28
2023-05-16T18:36:37.533Z,101540.41
2023-05-16T18:39:24.002Z,101542.06
2023-05-16T18:42:09.865Z,101546.00
2023-05-16T18:44:57.264Z,101549.88
2023-05-16T18:47:43.735Z,101550.72
2023-05-16T18:50:29.761Z,101558.16
2023-05-16T18:53:16.737Z,101558.06
2023-05-16T18:56:02.895Z,101562.72
2023-05-16T18:58:49.194Z,101569.31
2023-05-16T19:01:36.833Z,101574.47
2023-05-16T19:04:23.271Z,101577.09
2023-05-16T19:07:09.442Z,101583.53
2023-05-16T19:09:55.841Z,101584.16
2023-05-16T19:12:41.917Z,101582.66
2023-05-16T19:15:28.384Z,101596.56
2023-05-16T19:18:17.623Z,101596.94
2023-05-16T19:21:04.068Z,101589.97
2023-05-16T19:23:50.113Z,101595.38
2023-05-16T19:26:36.114Z,101595.75
2023-05-16T19:29:22.387Z,101595.06
2023-05-16T19:32:09.061Z,101596.28
2023-05-16T19:34:56.573Z,101602.00
2023-05-16T19:37:42.855Z,101594.66
2023-05-16T19:40:29.776Z,101590.28
2023-05-16T19:43:16.312Z,101595.69
2023-05-16T19:46:02.538Z,101603.53
2023-05-16T19:48:48.886Z,101600.81
2023-05-16T19:51:41.696Z,101604.44
2023-05-16T19:54:28.356Z,101594.06
2023-05-16T19:57:14.857Z,101606.59
2023-05-16T20:00:00.895Z,101597.97
2023-05-16T20:02:46.928Z,101601.41
2023-05-16T20:05:33.423Z,101602.50
2023-05-16T20:08:21.291Z,101603.19
2023-05-16T20:11:07.418Z,101601.03
2023-05-16T20:13:55.539Z,101608.66
2023-05-16T20:16:41.701Z,101613.31
2023-05-16T20:19:30.583Z,101606.22
2023-05-16T20:22:19.017Z,101612.38
2023-05-16T20:25:07.644Z,101611.16
2023-05-16T20:27:53.703Z,101605.06
2023-05-16T20:30:39.764Z,101613.88
2023-05-16T20:33:26.459Z,101610.06
2023-05-16T20:36:12.696Z,101608.13
2023-05-16T20:38:58.649Z,101605.81
2023-05-16T20:41:46.075Z,101614.56
2023-05-16T20:44:33.971Z,101611.00
2023-05-16T20:47:20.095Z,101610.63
2023-05-16T20:50:07.188Z,101610.38
2023-05-16T20:52:53.373Z,101616.28
2023-05-16T20:55:39.392Z,101610.00
2023-05-16T20:58:26.764Z,101612.59
2023-05-16T21:01:12.767Z,101613.16
2023-05-16T21:03:58.824Z,101612.59
2023-05-16T21:06:45.151Z,101613.59
2023-05-16T21:09:31.529Z,101610.63
2023-05-16T21:12:17.639Z,101608.31
2023-05-16T21:15:05.526Z,101601.34
2023-05-16T21:17:52.073Z,101611.94
2023-05-16T21:20:38.210Z,101611.00
2023-05-16T21:23:24.237Z,101609.25
2023-05-16T21:26:10.099Z,101608.75
2023-05-16T21:28:56.190Z,101609.88
2023-05-16T21:31:43.769Z,101610.34
2023-05-16T21:34:29.940Z,101614.25
2023-05-16T21:37:16.777Z,101615.59
2023-05-16T21:40:03.711Z,101621.47
2023-05-16T21:42:50.160Z,101619.59
2023-05-16T21:45:36.507Z,101624.72
2023-05-16T21:48:23.777Z,101629.41
2023-05-16T21:51:10.899Z,101633.16
2023-05-16T21:53:57.016Z,101633.00
2023-05-16T21:56:42.826Z,101633.91
2023-05-16T21:59:28.645Z,101623.66
2023-05-16T22:02:14.605Z,101625.47
2023-05-16T22:05:01.922Z,101625.66
2023-05-16T22:07:48.631Z,101632.19
2023-05-16T22:10:34.641Z,101632.88
2023-05-16T22:13:20.803Z,101633.19
2023-05-16T22:16:07.521Z,101636.72
2023-05-16T22:18:53.848Z,101638.63
2023-05-16T22:21:41.375Z,101638.38
2023-05-16T22:24:27.373Z,101639.72
2023-05-16T22:27:13.374Z,101640.56
2023-05-16T22:29:59.344Z,101641.59
2023-05-16T22:32:46.758Z,101638.59
2023-05-16T22:35:33.057Z,101632.78
2023-05-16T22:38:20.380Z,101634.09
2023-05-16T22:41:06.625Z,101635.47
2023-05-16T22:43:52.701Z,101633.84
2023-05-16T22:46:41.170Z,101637.88
2023-05-16T22:49:27.406Z,101636.75
2023-05-16T22:52:13.572Z,101631.38
2023-05-16T22:55:01.807Z,101633.88
2023-05-16T22:57:49.032Z,101635.19
2023-05-16T23:00:34.990Z,101634.56
2023-05-16T23:03:21.394Z,101631.41
2023-05-16T23:06:07.832Z,101630.22
2023-05-16T23:08:54.020Z,101633.78
2023-05-16T23:11:41.156Z,101631.00
2023-05-16T23:14:27.350Z,101633.00
2023-05-16T23:17:14.679Z,101640.59
2023-05-16T23:20:00.877Z,101640.72
2023-05-16T23:22:47.046Z,101644.13
2023-05-16T23:25:32.985Z,101646.97
2023-05-16T23:28:20.461Z,101647.63
2023-05-16T23:31:06.806Z,101635.75
2023-05-16T23:33:53.365Z,101635.56
2023-05-16T23:36:39.727Z,101646.81
2023-05-16T23:39:26.172Z,101648.66
2023-05-16T23:42:12.349Z,101653.06
2023-05-16T23:45:00.058Z,101654.75
2023-05-16T23:47:46.613Z,101656.25
2023-05-16T23:50:33.085Z,101662.47
2023-05-16T23:53:18.886Z,101652.22
2023-05-16T23:56:05.537Z,101663.66
2023-05-16T23:58:51.263Z,101659.09
